Aérodrome :
LOGIN :

S'inscrire | Disclaimer

   EN    FR    IT 

 










Légende :    VFR   VFR Marginal   IFR   IFR Intensif   IFR Très Intensif
Visi : 
Plafond : 
>= 8 km
>= 3000ft
5 à 8 km
1000 à 3000 ft
1500m à 5 km
500 à 1000 ft
800 à 1500m
200 à 500 ft
< 800m
< 200 ft
Symboles :   Orages  Brouillard  Fortes neiges  Fortes précipitations  Vent > 20 kt
SIGMETs :   Divers  Orages  Givrage  Turbulence  Onde Orograph.  Cendres Volcan.






- Altitude de l'aérodrome : 106 ft
- Code IATA : XDA


LFBY - Dax Seyresse

DERNIER METAR :
  • 080200Z AUTO 00000KT 9999 // ////// 14/13 Q1018

METARs EXPIRÉS :
  • 080130Z AUTO 14001KT 9999 // ////// 15/12 Q1018
  • 080100Z AUTO VRB02KT 9999 // ////// 16/13 Q1018
  • 080030Z AUTO 07003KT 030V110 9999 // ////// 17/13 Q1018
  • 080000Z AUTO VRB02KT 9999 // ////// 17/13 Q1018
  • 072330Z AUTO VRB03KT 9999 // ////// 18/13 Q1019

Prévision TAF périmée.



MET'MAP, la Météo Aéronautique d'un coup d'oeil ! - Copyright ORBIFLY Décembre 2007 - Disclaimer

ORBIFLY MET'MAP TEAM :

Programmation & Développement : Alexandra Zaïnal
Sur une idée originale de : Baudouin d'Aumeries
Assistance à la programmation : Marc-Olivier Méhu
Soutien technique & logistique : Manuel Goepfert

Contact : metmap@orbifly.com




SOURCES & CREDITS :

   NOAA